Neige/verglas Valable du: 14-12-2018 21:59 Au: 15-12-2018 09:59 Avertissement pour: Neige/verglas Niveau: Jaune info button
nederlands:
Rijmplekken :vannacht moet men opnieuw rekening houden met rijmplekken.Winterse neerslag : zaterdagavond en in de nacht naar zondag trekt een storing van west naar oost over het land met eerst (smeltende) sneeuw of tijdelijk zelfs aanvriezende regen, later overgaand in regen. In de Ardennen valt er waarschijnlijk eerst sneeuw, later aanvriezende regen.

français:
Plaques de givre :des plaques de givre pourront se former par endroits en cours de nuit prochaine.Precipitations hivernales :samedi soir et la nuit de samedi a dimanche, une perturbation traversera le pays d'ouest en est avec, dans un premier temps, de la neige (fondante) ou meme temporairement des pluies verglacantes et ensuite, uniquement de la pluie. En Ardenne, il s'agira probablement d'abord de neige puis, de pluies verglacantes. 



Thunder radar more information blitzortung!


d'avertissement pour neige et la glace more information rain snow radar


Visitez nos sites météorologiques autres:

Template documentation
and downloads

And another site



Rapports METAR proximité

   
EBAW - Antwerp
Mise à jour: 14-12-2018 22:50
Nuageux  
Nuageux  
   Vent: ESE 5.6 km/h
Vent: ESE 5.6 km/h
Température: 0°C
éolien: -2°C
Point de rosée: -1°C
Humidité: 93%
Baromètre: 1025 hPa
Nuageux: Nuageux
visibilité: 9 km
Détails des nuages: Nuageux 3700 ft
EBAW 142150Z 12003KT 040V160 9000 BKN037 00/M01 Q1025 TEMPO 4500 BR
EBLG - Liège
Mise à jour: 14-12-2018 22:50
Nuageux  
Nuageux  
   Vent: ESE 7.4 km/h
Vent: ESE 7.4 km/h
Température: 0°C
éolien: -3°C
Point de rosée: -7°C
Humidité: 60%
Baromètre: 1024 hPa
Nuageux: Nuageux
visibilité: More than 10 km
Détails des nuages: Nuageux 3300 ft
EBLG 142150Z 12004KT 090V150 9999 BKN033 M00/M07 Q1024 NOSIG
EBCV - Mons/Bergen
Mise à jour: 14-12-2018 22:55
Nuageux  
Nuageux  
   Vent: varie 3.7 km/h
Vent: varie 3.7 km/h
Température: 0°C
Point de rosée: -3°C
Humidité: 80%
Baromètre: 1025 hPa
Nuageux: Nuageux
visibilité: More than 10 km
Détails des nuages: Nuageux 3200 ft
EBCV 142155Z AUTO VRB02KT 9999 OVC032/// 00/M03 Q1025 BLU
EHBK - Maastricht
Mise à jour: 14-12-2018 22:55
Nuageux  
Nuageux  
   Vent: Est 5.6 km/h
Vent: Est 5.6 km/h
Température: 0°C
éolien: -2°C
Point de rosée: -3°C
Humidité: 80%
Baromètre: 1024 hPa
Nuageux: Nuageux
visibilité: More than 10 km
Détails des nuages: Nuageux 3600 ft
EHBK 142155Z AUTO 09003KT 050V110 9999 OVC036 00/M03 Q1024
ELLX - Luxemburg
Mise à jour: 14-12-2018 22:50
Nuageux  
Nuageux  
   Vent: Est 7.4 km/h
Vent: Est 7.4 km/h
Température: -2°C
éolien: -5°C
Point de rosée: -7°C
Humidité: 69%
Baromètre: 1022 hPa
Nuageux: Nuageux
visibilité: More than 10 km
Détails des nuages: Nuageux 2600 ft
ELLX 142150Z 09004KT 040V130 9999 BKN026 M02/M07 Q1022 NOSIG
EBOS - Oostende
Mise à jour: 14-12-2018 22:50
Nuageux  
Nuageux  
   Vent: Est 9.3 km/h
Vent: Est 9.3 km/h
Température: 0°C
éolien: -3°C
Point de rosée: -4°C
Humidité: 75%
Baromètre: 1025 hPa
Nuageux: Nuageux
visibilité: More than 10 km
Détails des nuages: Nuageux 3800 ft
EBOS 142150Z 09005KT 9999 BKN038 M00/M04 Q1025 NOSIG

Script développé par  Saratoga-weather.org Adapté pour le modèle par  Weerstation Leuven

Vous trouverez notre info météo Également à:

Weather Underground

Équipement que nous utilisons:

Station de Météo
Davis VP2

Programme Météo
Meteohub

Ordinateur Météo
RaspberryPI 2

Provider
OVH

Davis VP2

Meteohub

RaspberryPI 2

OVH